sensor_id;sensor_type;location;lat;lon;timestamp;P1;durP1;ratioP1;P2;durP2;ratioP2
67193;SDS011;54121;53.508;49.422;2022-07-22T00:01:34;22.17;;;11.68;;
67193;SDS011;54121;53.508;49.422;2022-07-22T00:04:01;28.58;;;12.38;;
67193;SDS011;54121;53.508;49.422;2022-07-22T00:06:28;22.60;;;11.98;;
67193;SDS011;54121;53.508;49.422;2022-07-22T00:08:55;27.70;;;12.38;;
67193;SDS011;54121;53.508;49.422;2022-07-22T00:11:22;25.35;;;11.88;;
67193;SDS011;54121;53.508;49.422;2022-07-22T00:13:49;25.65;;;9.77;;
67193;SDS011;54121;53.508;49.422;2022-07-22T00:16:16;25.92;;;11.98;;
67193;SDS011;54121;53.508;49.422;2022-07-22T00:18:42;20.65;;;10.88;;
67193;SDS011;54121;53.508;49.422;2022-07-22T00:21:09;21.13;;;10.65;;
67193;SDS011;54121;53.508;49.422;2022-07-22T00:23:35;22.65;;;10.15;;
67193;SDS011;54121;53.508;49.422;2022-07-22T00:26:02;26.92;;;9.10;;
67193;SDS011;54121;53.508;49.422;2022-07-22T00:28:28;19.92;;;8.32;;
67193;SDS011;54121;53.508;49.422;2022-07-22T00:30:55;18.98;;;9.05;;
67193;SDS011;54121;53.508;49.422;2022-07-22T00:33:22;17.35;;;8.02;;
67193;SDS011;54121;53.508;49.422;2022-07-22T00:35:48;20.10;;;8.00;;
67193;SDS011;54121;53.508;49.422;2022-07-22T00:38:15;21.08;;;8.02;;
67193;SDS011;54121;53.508;49.422;2022-07-22T00:40:42;14.27;;;6.93;;
67193;SDS011;54121;53.508;49.422;2022-07-22T00:43:09;18.45;;;6.93;;
67193;SDS011;54121;53.508;49.422;2022-07-22T00:45:35;19.15;;;7.35;;
67193;SDS011;54121;53.508;49.422;2022-07-22T00:48:02;11.95;;;5.07;;
67193;SDS011;54121;53.508;49.422;2022-07-22T00:50:29;9.07;;;4.78;;
67193;SDS011;54121;53.508;49.422;2022-07-22T00:52:55;13.38;;;5.25;;
67193;SDS011;54121;53.508;49.422;2022-07-22T00:55:22;12.75;;;5.30;;
67193;SDS011;54121;53.508;49.422;2022-07-22T00:57:48;10.68;;;4.13;;
67193;SDS011;54121;53.508;49.422;2022-07-22T01:00:17;14.27;;;4.43;;
67193;SDS011;54121;53.508;49.422;2022-07-22T01:02:45;8.20;;;4.30;;
67193;SDS011;54121;53.508;49.422;2022-07-22T01:05:12;8.85;;;3.85;;
67193;SDS011;54121;53.508;49.422;2022-07-22T01:07:39;10.10;;;4.13;;
67193;SDS011;54121;53.508;49.422;2022-07-22T01:10:06;9.80;;;3.95;;
67193;SDS011;54121;53.508;49.422;2022-07-22T01:12:33;7.35;;;3.50;;
67193;SDS011;54121;53.508;49.422;2022-07-22T01:14:59;10.50;;;3.58;;
67193;SDS011;54121;53.508;49.422;2022-07-22T01:17:26;11.20;;;4.10;;
67193;SDS011;54121;53.508;49.422;2022-07-22T01:19:53;9.02;;;4.43;;
67193;SDS011;54121;53.508;49.422;2022-07-22T01:22:24;11.77;;;4.47;;
67193;SDS011;54121;53.508;49.422;2022-07-22T01:24:52;13.25;;;4.25;;
67193;SDS011;54121;53.508;49.422;2022-07-22T01:27:19;7.80;;;3.55;;
67193;SDS011;54121;53.508;49.422;2022-07-22T01:29:47;7.80;;;3.10;;
67193;SDS011;54121;53.508;49.422;2022-07-22T01:32:14;7.53;;;3.45;;
67193;SDS011;54121;53.508;49.422;2022-07-22T01:34:41;13.05;;;3.20;;
67193;SDS011;54121;53.508;49.422;2022-07-22T01:37:09;8.55;;;3.17;;
67193;SDS011;54121;53.508;49.422;2022-07-22T01:39:37;7.95;;;3.10;;
67193;SDS011;54121;53.508;49.422;2022-07-22T01:42:03;6.25;;;2.58;;
67193;SDS011;54121;53.508;49.422;2022-07-22T01:44:30;7.10;;;3.03;;
67193;SDS011;54121;53.508;49.422;2022-07-22T01:46:57;6.45;;;2.70;;
67193;SDS011;54121;53.508;49.422;2022-07-22T01:49:24;6.50;;;2.72;;
67193;SDS011;54121;53.508;49.422;2022-07-22T01:51:51;8.27;;;3.22;;
67193;SDS011;54121;53.508;49.422;2022-07-22T01:54:18;5.45;;;2.50;;
67193;SDS011;54121;53.508;49.422;2022-07-22T01:56:44;4.38;;;2.10;;
67193;SDS011;54121;53.508;49.422;2022-07-22T01:59:11;5.90;;;2.40;;
67193;SDS011;54121;53.508;49.422;2022-07-22T02:01:37;4.95;;;2.28;;
67193;SDS011;54121;53.508;49.422;2022-07-22T02:04:04;8.13;;;2.50;;
67193;SDS011;54121;53.508;49.422;2022-07-22T02:06:30;4.72;;;2.50;;
67193;SDS011;54121;53.508;49.422;2022-07-22T02:08:57;8.88;;;2.10;;
67193;SDS011;54121;53.508;49.422;2022-07-22T02:11:24;6.15;;;2.17;;
67193;SDS011;54121;53.508;49.422;2022-07-22T02:13:50;5.82;;;2.58;;
67193;SDS011;54121;53.508;49.422;2022-07-22T02:16:17;4.53;;;2.33;;
67193;SDS011;54121;53.508;49.422;2022-07-22T02:18:44;4.78;;;1.90;;
67193;SDS011;54121;53.508;49.422;2022-07-22T02:21:10;4.90;;;2.33;;
67193;SDS011;54121;53.508;49.422;2022-07-22T02:23:37;8.32;;;2.47;;
67193;SDS011;54121;53.508;49.422;2022-07-22T02:26:03;8.60;;;2.47;;
67193;SDS011;54121;53.508;49.422;2022-07-22T02:28:30;5.75;;;2.08;;
67193;SDS011;54121;53.508;49.422;2022-07-22T02:30:56;5.10;;;2.65;;
67193;SDS011;54121;53.508;49.422;2022-07-22T02:33:22;5.65;;;2.30;;
67193;SDS011;54121;53.508;49.422;2022-07-22T02:35:49;4.82;;;2.25;;
67193;SDS011;54121;53.508;49.422;2022-07-22T02:38:15;7.35;;;2.15;;
67193;SDS011;54121;53.508;49.422;2022-07-22T02:40:42;8.98;;;2.63;;
67193;SDS011;54121;53.508;49.422;2022-07-22T02:43:08;12.05;;;2.83;;
67193;SDS011;54121;53.508;49.422;2022-07-22T02:45:35;5.78;;;2.67;;
67193;SDS011;54121;53.508;49.422;2022-07-22T02:48:01;7.90;;;2.38;;
67193;SDS011;54121;53.508;49.422;2022-07-22T02:50:27;6.22;;;2.13;;
67193;SDS011;54121;53.508;49.422;2022-07-22T02:52:54;7.85;;;1.85;;
67193;SDS011;54121;53.508;49.422;2022-07-22T02:55:20;7.85;;;2.33;;
67193;SDS011;54121;53.508;49.422;2022-07-22T02:57:47;9.10;;;3.00;;
67193;SDS011;54121;53.508;49.422;2022-07-22T03:00:13;5.93;;;1.42;;
67193;SDS011;54121;53.508;49.422;2022-07-22T03:02:40;5.38;;;2.05;;
67193;SDS011;54121;53.508;49.422;2022-07-22T03:05:08;5.05;;;1.98;;
67193;SDS011;54121;53.508;49.422;2022-07-22T03:07:35;17.67;;;5.95;;
67193;SDS011;54121;53.508;49.422;2022-07-22T03:10:01;2.92;;;1.67;;
67193;SDS011;54121;53.508;49.422;2022-07-22T03:12:28;15.07;;;2.67;;
67193;SDS011;54121;53.508;49.422;2022-07-22T03:14:55;10.77;;;2.63;;
67193;SDS011;54121;53.508;49.422;2022-07-22T03:17:21;11.90;;;2.30;;
67193;SDS011;54121;53.508;49.422;2022-07-22T03:19:47;18.08;;;4.45;;
67193;SDS011;54121;53.508;49.422;2022-07-22T03:22:14;13.95;;;3.60;;
67193;SDS011;54121;53.508;49.422;2022-07-22T03:24:40;8.32;;;2.30;;
67193;SDS011;54121;53.508;49.422;2022-07-22T03:27:07;5.65;;;1.90;;
67193;SDS011;54121;53.508;49.422;2022-07-22T03:29:33;12.00;;;1.75;;
67193;SDS011;54121;53.508;49.422;2022-07-22T03:32:00;18.65;;;3.22;;
67193;SDS011;54121;53.508;49.422;2022-07-22T03:34:26;6.25;;;2.00;;
67193;SDS011;54121;53.508;49.422;2022-07-22T03:36:52;16.33;;;2.60;;
67193;SDS011;54121;53.508;49.422;2022-07-22T03:39:19;9.60;;;2.47;;
67193;SDS011;54121;53.508;49.422;2022-07-22T03:41:45;13.88;;;3.20;;
67193;SDS011;54121;53.508;49.422;2022-07-22T03:44:12;9.82;;;2.13;;
67193;SDS011;54121;53.508;49.422;2022-07-22T03:46:38;9.05;;;2.25;;
67193;SDS011;54121;53.508;49.422;2022-07-22T03:49:04;15.88;;;3.22;;
67193;SDS011;54121;53.508;49.422;2022-07-22T03:51:31;8.88;;;2.70;;
67193;SDS011;54121;53.508;49.422;2022-07-22T03:53:57;9.95;;;1.90;;
67193;SDS011;54121;53.508;49.422;2022-07-22T03:56:24;22.30;;;3.03;;
67193;SDS011;54121;53.508;49.422;2022-07-22T03:58:50;21.02;;;3.42;;
67193;SDS011;54121;53.508;49.422;2022-07-22T04:01:17;11.70;;;2.78;;
67193;SDS011;54121;53.508;49.422;2022-07-22T04:03:43;21.88;;;2.95;;
67193;SDS011;54121;53.508;49.422;2022-07-22T04:06:09;7.55;;;1.85;;
67193;SDS011;54121;53.508;49.422;2022-07-22T04:08:36;8.77;;;2.47;;
67193;SDS011;54121;53.508;49.422;2022-07-22T04:11:02;9.30;;;1.98;;
67193;SDS011;54121;53.508;49.422;2022-07-22T04:13:29;17.02;;;2.60;;
67193;SDS011;54121;53.508;49.422;2022-07-22T04:15:55;9.13;;;1.40;;
67193;SDS011;54121;53.508;49.422;2022-07-22T04:18:22;13.90;;;2.08;;
67193;SDS011;54121;53.508;49.422;2022-07-22T04:20:48;8.13;;;2.13;;
67193;SDS011;54121;53.508;49.422;2022-07-22T04:23:15;13.15;;;2.90;;
67193;SDS011;54121;53.508;49.422;2022-07-22T04:25:41;9.27;;;2.00;;
67193;SDS011;54121;53.508;49.422;2022-07-22T04:28:08;8.48;;;1.70;;
67193;SDS011;54121;53.508;49.422;2022-07-22T04:30:34;17.45;;;3.65;;
67193;SDS011;54121;53.508;49.422;2022-07-22T04:33:01;6.60;;;1.98;;
67193;SDS011;54121;53.508;49.422;2022-07-22T04:35:27;11.40;;;2.88;;
67193;SDS011;54121;53.508;49.422;2022-07-22T04:37:54;11.35;;;2.80;;
67193;SDS011;54121;53.508;49.422;2022-07-22T04:40:20;9.07;;;1.98;;
67193;SDS011;54121;53.508;49.422;2022-07-22T04:42:47;7.00;;;1.65;;
67193;SDS011;54121;53.508;49.422;2022-07-22T04:45:13;17.52;;;3.10;;
67193;SDS011;54121;53.508;49.422;2022-07-22T04:47:39;7.43;;;1.90;;
67193;SDS011;54121;53.508;49.422;2022-07-22T04:50:06;9.85;;;1.67;;
67193;SDS011;54121;53.508;49.422;2022-07-22T04:52:33;9.32;;;1.52;;
67193;SDS011;54121;53.508;49.422;2022-07-22T04:55:00;7.00;;;1.70;;
67193;SDS011;54121;53.508;49.422;2022-07-22T04:57:26;7.53;;;1.75;;
67193;SDS011;54121;53.508;49.422;2022-07-22T04:59:53;7.10;;;2.00;;
67193;SDS011;54121;53.508;49.422;2022-07-22T05:02:19;9.45;;;2.10;;
67193;SDS011;54121;53.508;49.422;2022-07-22T05:04:46;7.45;;;1.70;;
67193;SDS011;54121;53.508;49.422;2022-07-22T05:07:13;19.00;;;4.40;;
67193;SDS011;54121;53.508;49.422;2022-07-22T05:09:39;9.00;;;1.98;;
67193;SDS011;54121;53.508;49.422;2022-07-22T05:12:06;8.00;;;2.20;;
67193;SDS011;54121;53.508;49.422;2022-07-22T05:14:33;7.55;;;1.42;;
67193;SDS011;54121;53.508;49.422;2022-07-22T05:16:59;10.10;;;2.15;;
67193;SDS011;54121;53.508;49.422;2022-07-22T05:19:25;5.05;;;1.48;;
67193;SDS011;54121;53.508;49.422;2022-07-22T05:21:52;13.25;;;4.75;;
67193;SDS011;54121;53.508;49.422;2022-07-22T05:24:18;4.28;;;1.70;;
67193;SDS011;54121;53.508;49.422;2022-07-22T05:26:45;12.43;;;1.40;;
67193;SDS011;54121;53.508;49.422;2022-07-22T05:29:11;4.55;;;1.77;;
67193;SDS011;54121;53.508;49.422;2022-07-22T05:31:37;10.40;;;1.73;;
67193;SDS011;54121;53.508;49.422;2022-07-22T05:34:04;8.52;;;1.75;;
67193;SDS011;54121;53.508;49.422;2022-07-22T05:36:31;12.45;;;2.40;;
67193;SDS011;54121;53.508;49.422;2022-07-22T05:38:58;5.65;;;1.60;;
67193;SDS011;54121;53.508;49.422;2022-07-22T05:41:25;16.85;;;2.97;;
67193;SDS011;54121;53.508;49.422;2022-07-22T05:43:51;7.30;;;1.85;;
67193;SDS011;54121;53.508;49.422;2022-07-22T05:46:17;20.17;;;4.28;;
67193;SDS011;54121;53.508;49.422;2022-07-22T05:48:44;9.05;;;2.22;;
67193;SDS011;54121;53.508;49.422;2022-07-22T05:51:11;3.38;;;1.42;;
67193;SDS011;54121;53.508;49.422;2022-07-22T05:53:38;5.63;;;1.33;;
67193;SDS011;54121;53.508;49.422;2022-07-22T05:56:06;7.60;;;1.73;;
67193;SDS011;54121;53.508;49.422;2022-07-22T05:58:32;3.85;;;1.50;;
67193;SDS011;54121;53.508;49.422;2022-07-22T06:00:59;5.65;;;1.90;;
67193;SDS011;54121;53.508;49.422;2022-07-22T06:03:25;4.72;;;2.08;;
67193;SDS011;54121;53.508;49.422;2022-07-22T06:05:52;10.07;;;2.97;;
67193;SDS011;54121;53.508;49.422;2022-07-22T06:08:18;8.43;;;2.38;;
67193;SDS011;54121;53.508;49.422;2022-07-22T06:10:44;9.07;;;2.97;;
67193;SDS011;54121;53.508;49.422;2022-07-22T06:13:11;7.00;;;1.90;;
67193;SDS011;54121;53.508;49.422;2022-07-22T06:15:38;7.40;;;1.52;;
67193;SDS011;54121;53.508;49.422;2022-07-22T06:18:04;8.48;;;1.60;;
67193;SDS011;54121;53.508;49.422;2022-07-22T06:20:31;6.45;;;1.50;;
67193;SDS011;54121;53.508;49.422;2022-07-22T06:22:57;9.73;;;1.77;;
67193;SDS011;54121;53.508;49.422;2022-07-22T06:25:24;10.40;;;1.63;;
67193;SDS011;54121;53.508;49.422;2022-07-22T06:27:50;5.90;;;1.50;;
67193;SDS011;54121;53.508;49.422;2022-07-22T06:30:16;4.05;;;1.48;;
67193;SDS011;54121;53.508;49.422;2022-07-22T06:32:43;5.60;;;1.50;;
67193;SDS011;54121;53.508;49.422;2022-07-22T06:35:10;5.97;;;1.40;;
67193;SDS011;54121;53.508;49.422;2022-07-22T06:37:37;8.32;;;1.63;;
67193;SDS011;54121;53.508;49.422;2022-07-22T06:40:03;10.27;;;1.77;;
67193;SDS011;54121;53.508;49.422;2022-07-22T06:42:30;9.07;;;2.38;;
67193;SDS011;54121;53.508;49.422;2022-07-22T06:44:57;8.25;;;2.20;;
67193;SDS011;54121;53.508;49.422;2022-07-22T06:47:23;13.40;;;2.75;;
67193;SDS011;54121;53.508;49.422;2022-07-22T06:49:50;7.45;;;1.88;;
67193;SDS011;54121;53.508;49.422;2022-07-22T06:52:16;6.22;;;1.88;;
67193;SDS011;54121;53.508;49.422;2022-07-22T06:54:43;8.13;;;1.75;;
67193;SDS011;54121;53.508;49.422;2022-07-22T06:57:09;8.52;;;1.90;;
67193;SDS011;54121;53.508;49.422;2022-07-22T06:59:36;9.95;;;2.22;;
67193;SDS011;54121;53.508;49.422;2022-07-22T07:02:03;11.85;;;3.15;;
67193;SDS011;54121;53.508;49.422;2022-07-22T07:04:29;4.60;;;2.13;;
67193;SDS011;54121;53.508;49.422;2022-07-22T07:06:56;6.68;;;2.08;;
67193;SDS011;54121;53.508;49.422;2022-07-22T07:09:22;7.55;;;2.33;;
67193;SDS011;54121;53.508;49.422;2022-07-22T07:11:49;8.48;;;2.50;;
67193;SDS011;54121;53.508;49.422;2022-07-22T07:14:16;12.52;;;2.80;;
67193;SDS011;54121;53.508;49.422;2022-07-22T07:16:42;12.00;;;3.75;;
67193;SDS011;54121;53.508;49.422;2022-07-22T07:19:09;11.88;;;2.83;;
67193;SDS011;54121;53.508;49.422;2022-07-22T07:21:35;20.35;;;3.90;;
67193;SDS011;54121;53.508;49.422;2022-07-22T07:24:02;9.07;;;2.40;;
67193;SDS011;54121;53.508;49.422;2022-07-22T07:26:28;7.15;;;2.80;;
67193;SDS011;54121;53.508;49.422;2022-07-22T07:28:55;5.50;;;2.10;;
67193;SDS011;54121;53.508;49.422;2022-07-22T07:31:21;13.43;;;2.20;;
67193;SDS011;54121;53.508;49.422;2022-07-22T07:33:48;8.93;;;2.10;;
67193;SDS011;54121;53.508;49.422;2022-07-22T07:36:15;6.97;;;1.90;;
67193;SDS011;54121;53.508;49.422;2022-07-22T07:38:41;4.75;;;1.75;;
67193;SDS011;54121;53.508;49.422;2022-07-22T07:41:08;17.20;;;2.80;;
67193;SDS011;54121;53.508;49.422;2022-07-22T07:43:35;5.80;;;1.70;;
67193;SDS011;54121;53.508;49.422;2022-07-22T07:46:01;4.45;;;1.60;;
67193;SDS011;54121;53.508;49.422;2022-07-22T07:48:28;14.45;;;2.45;;
67193;SDS011;54121;53.508;49.422;2022-07-22T07:50:54;4.93;;;1.52;;
67193;SDS011;54121;53.508;49.422;2022-07-22T07:53:21;12.02;;;2.63;;
67193;SDS011;54121;53.508;49.422;2022-07-22T07:55:48;9.65;;;1.88;;
67193;SDS011;54121;53.508;49.422;2022-07-22T07:58:15;10.57;;;1.88;;
67193;SDS011;54121;53.508;49.422;2022-07-22T08:00:42;13.55;;;2.08;;
67193;SDS011;54121;53.508;49.422;2022-07-22T08:03:08;12.38;;;1.73;;
67193;SDS011;54121;53.508;49.422;2022-07-22T08:05:35;8.75;;;1.70;;
67193;SDS011;54121;53.508;49.422;2022-07-22T08:10:31;17.35;;;1.83;;
67193;SDS011;54121;53.508;49.422;2022-07-22T08:12:57;4.78;;;1.20;;
67193;SDS011;54121;53.508;49.422;2022-07-22T08:15:25;6.60;;;1.67;;
67193;SDS011;54121;53.508;49.422;2022-07-22T08:17:53;7.87;;;1.50;;
67193;SDS011;54121;53.508;49.422;2022-07-22T08:20:20;6.40;;;1.30;;
67193;SDS011;54121;53.508;49.422;2022-07-22T08:22:47;4.80;;;1.15;;
67193;SDS011;54121;53.508;49.422;2022-07-22T08:25:14;4.97;;;1.20;;
67193;SDS011;54121;53.508;49.422;2022-07-22T08:27:40;3.97;;;1.30;;
67193;SDS011;54121;53.508;49.422;2022-07-22T08:30:07;2.00;;;0.93;;
67193;SDS011;54121;53.508;49.422;2022-07-22T08:32:34;7.45;;;1.90;;
67193;SDS011;54121;53.508;49.422;2022-07-22T08:35:01;4.85;;;1.65;;
67193;SDS011;54121;53.508;49.422;2022-07-22T08:37:28;3.28;;;1.38;;
67193;SDS011;54121;53.508;49.422;2022-07-22T08:39:55;6.13;;;1.20;;
67193;SDS011;54121;53.508;49.422;2022-07-22T08:42:22;4.68;;;1.08;;
67193;SDS011;54121;53.508;49.422;2022-07-22T08:44:50;3.67;;;1.20;;
67193;SDS011;54121;53.508;49.422;2022-07-22T08:47:22;4.03;;;1.10;;
67193;SDS011;54121;53.508;49.422;2022-07-22T08:49:49;2.75;;;1.02;;
67193;SDS011;54121;53.508;49.422;2022-07-22T08:52:16;6.65;;;1.42;;
67193;SDS011;54121;53.508;49.422;2022-07-22T08:54:42;3.47;;;1.45;;
67193;SDS011;54121;53.508;49.422;2022-07-22T08:57:09;6.15;;;1.45;;
67193;SDS011;54121;53.508;49.422;2022-07-22T08:59:48;4.03;;;1.20;;
67193;SDS011;54121;53.508;49.422;2022-07-22T09:02:16;9.00;;;2.03;;
67193;SDS011;54121;53.508;49.422;2022-07-22T09:05:03;6.15;;;1.20;;
67193;SDS011;54121;53.508;49.422;2022-07-22T09:07:33;3.67;;;1.20;;
67193;SDS011;54121;53.508;49.422;2022-07-22T09:10:03;6.00;;;2.00;;
67193;SDS011;54121;53.508;49.422;2022-07-22T09:12:55;4.40;;;0.80;;
67193;SDS011;54121;53.508;49.422;2022-07-22T09:15:28;5.10;;;1.17;;
67193;SDS011;54121;53.508;49.422;2022-07-22T09:18:02;2.28;;;1.10;;
67193;SDS011;54121;53.508;49.422;2022-07-22T09:20:29;11.38;;;2.00;;
67193;SDS011;54121;53.508;49.422;2022-07-22T09:22:56;3.70;;;0.98;;
67193;SDS011;54121;53.508;49.422;2022-07-22T09:25:24;4.32;;;0.98;;
67193;SDS011;54121;53.508;49.422;2022-07-22T09:28:18;6.55;;;1.20;;
67193;SDS011;54121;53.508;49.422;2022-07-22T09:30:47;4.57;;;0.88;;
67193;SDS011;54121;53.508;49.422;2022-07-22T09:33:16;7.07;;;1.15;;
67193;SDS011;54121;53.508;49.422;2022-07-22T09:35:44;9.57;;;1.23;;
67193;SDS011;54121;53.508;49.422;2022-07-22T09:38:12;2.43;;;1.20;;
67193;SDS011;54121;53.508;49.422;2022-07-22T09:40:41;4.82;;;1.02;;
67193;SDS011;54121;53.508;49.422;2022-07-22T09:43:13;5.20;;;0.95;;
67193;SDS011;54121;53.508;49.422;2022-07-22T09:45:48;5.00;;;1.00;;
67193;SDS011;54121;53.508;49.422;2022-07-22T09:48:17;3.35;;;1.10;;
67193;SDS011;54121;53.508;49.422;2022-07-22T09:50:45;2.58;;;1.10;;
67193;SDS011;54121;53.508;49.422;2022-07-22T09:53:12;8.00;;;0.95;;
67193;SDS011;54121;53.508;49.422;2022-07-22T09:55:39;5.68;;;1.00;;
67193;SDS011;54121;53.508;49.422;2022-07-22T09:58:06;5.15;;;1.30;;
67193;SDS011;54121;53.508;49.422;2022-07-22T10:00:33;2.88;;;1.00;;
67193;SDS011;54121;53.508;49.422;2022-07-22T10:03:01;4.63;;;1.13;;
67193;SDS011;54121;53.508;49.422;2022-07-22T10:05:31;7.60;;;1.38;;
67193;SDS011;54121;53.508;49.422;2022-07-22T10:08:00;6.47;;;1.42;;
67193;SDS011;54121;53.508;49.422;2022-07-22T10:10:28;7.60;;;2.13;;
67193;SDS011;54121;53.508;49.422;2022-07-22T10:15:24;3.67;;;1.05;;
67193;SDS011;54121;53.508;49.422;2022-07-22T10:17:53;8.20;;;1.30;;
67193;SDS011;54121;53.508;49.422;2022-07-22T10:20:22;10.07;;;1.95;;
67193;SDS011;54121;53.508;49.422;2022-07-22T10:22:53;9.82;;;1.92;;
67193;SDS011;54121;53.508;49.422;2022-07-22T10:25:24;9.65;;;2.03;;
67193;SDS011;54121;53.508;49.422;2022-07-22T10:28:02;8.68;;;1.42;;
67193;SDS011;54121;53.508;49.422;2022-07-22T10:30:34;4.47;;;1.30;;
67193;SDS011;54121;53.508;49.422;2022-07-22T10:33:03;7.60;;;2.35;;
67193;SDS011;54121;53.508;49.422;2022-07-22T10:35:32;4.00;;;1.20;;
67193;SDS011;54121;53.508;49.422;2022-07-22T10:38:01;4.60;;;1.20;;
67193;SDS011;54121;53.508;49.422;2022-07-22T10:40:45;2.03;;;0.90;;
67193;SDS011;54121;53.508;49.422;2022-07-22T10:43:58;5.00;;;1.48;;
67193;SDS011;54121;53.508;49.422;2022-07-22T10:46:08;4.65;;;1.27;;
67193;SDS011;54121;53.508;49.422;2022-07-22T10:51:08;5.20;;;1.27;;
67193;SDS011;54121;53.508;49.422;2022-07-22T10:56:29;6.72;;;1.40;;
67193;SDS011;54121;53.508;49.422;2022-07-22T10:58:58;10.80;;;0.95;;
67193;SDS011;54121;53.508;49.422;2022-07-22T11:01:32;5.75;;;1.42;;
67193;SDS011;54121;53.508;49.422;2022-07-22T11:04:09;7.05;;;1.48;;
67193;SDS011;54121;53.508;49.422;2022-07-22T11:06:41;3.03;;;1.90;;
67193;SDS011;54121;53.508;49.422;2022-07-22T11:09:10;6.67;;;1.40;;
67193;SDS011;54121;53.508;49.422;2022-07-22T11:14:26;7.70;;;1.30;;
67193;SDS011;54121;53.508;49.422;2022-07-22T11:16:57;10.32;;;2.58;;
67193;SDS011;54121;53.508;49.422;2022-07-22T11:19:25;4.97;;;1.38;;
67193;SDS011;54121;53.508;49.422;2022-07-22T11:24:21;2.63;;;1.15;;
67193;SDS011;54121;53.508;49.422;2022-07-22T11:26:48;3.95;;;1.38;;
67193;SDS011;54121;53.508;49.422;2022-07-22T11:29:27;3.55;;;1.35;;
67193;SDS011;54121;53.508;49.422;2022-07-22T11:34:23;8.45;;;1.75;;
67193;SDS011;54121;53.508;49.422;2022-07-22T11:36:51;11.77;;;1.48;;
67193;SDS011;54121;53.508;49.422;2022-07-22T11:41:47;12.75;;;1.98;;
67193;SDS011;54121;53.508;49.422;2022-07-22T11:44:17;7.38;;;1.52;;
67193;SDS011;54121;53.508;49.422;2022-07-22T11:46:47;7.05;;;1.48;;
67193;SDS011;54121;53.508;49.422;2022-07-22T11:49:14;7.10;;;1.75;;
67193;SDS011;54121;53.508;49.422;2022-07-22T11:51:42;4.85;;;1.20;;
67193;SDS011;54121;53.508;49.422;2022-07-22T11:54:09;4.93;;;1.58;;
67193;SDS011;54121;53.508;49.422;2022-07-22T11:56:36;10.75;;;2.70;;
67193;SDS011;54121;53.508;49.422;2022-07-22T11:59:03;6.72;;;1.55;;
67193;SDS011;54121;53.508;49.422;2022-07-22T12:01:31;5.18;;;1.42;;
67193;SDS011;54121;53.508;49.422;2022-07-22T12:06:31;4.82;;;1.15;;
67193;SDS011;54121;53.508;49.422;2022-07-22T12:09:03;4.38;;;1.38;;
67193;SDS011;54121;53.508;49.422;2022-07-22T12:11:32;7.68;;;1.70;;
67193;SDS011;54121;53.508;49.422;2022-07-22T12:14:04;6.78;;;2.05;;
67193;SDS011;54121;53.508;49.422;2022-07-22T12:16:32;17.45;;;2.28;;
67193;SDS011;54121;53.508;49.422;2022-07-22T12:19:00;5.22;;;1.33;;
67193;SDS011;54121;53.508;49.422;2022-07-22T12:21:30;7.60;;;1.63;;
67193;SDS011;54121;53.508;49.422;2022-07-22T12:24:03;2.80;;;1.20;;
67193;SDS011;54121;53.508;49.422;2022-07-22T12:26:41;9.23;;;1.48;;
67193;SDS011;54121;53.508;49.422;2022-07-22T12:29:15;5.97;;;1.40;;
67193;SDS011;54121;53.508;49.422;2022-07-22T12:31:54;3.00;;;0.88;;
67193;SDS011;54121;53.508;49.422;2022-07-22T12:36:58;2.33;;;0.90;;
67193;SDS011;54121;53.508;49.422;2022-07-22T12:39:28;4.65;;;1.23;;
67193;SDS011;54121;53.508;49.422;2022-07-22T12:41:55;4.93;;;1.10;;
67193;SDS011;54121;53.508;49.422;2022-07-22T12:44:23;9.70;;;1.50;;
67193;SDS011;54121;53.508;49.422;2022-07-22T12:46:54;3.10;;;1.15;;
67193;SDS011;54121;53.508;49.422;2022-07-22T12:49:23;6.18;;;1.70;;
67193;SDS011;54121;53.508;49.422;2022-07-22T12:54:34;5.97;;;1.92;;
67193;SDS011;54121;53.508;49.422;2022-07-22T12:57:01;2.63;;;1.15;;
67193;SDS011;54121;53.508;49.422;2022-07-22T12:59:28;8.07;;;1.85;;
67193;SDS011;54121;53.508;49.422;2022-07-22T13:01:55;4.20;;;1.23;;
67193;SDS011;54121;53.508;49.422;2022-07-22T13:04:22;16.13;;;4.22;;
67193;SDS011;54121;53.508;49.422;2022-07-22T13:06:48;7.15;;;2.40;;
67193;SDS011;54121;53.508;49.422;2022-07-22T13:09:15;9.50;;;3.63;;
67193;SDS011;54121;53.508;49.422;2022-07-22T13:11:42;9.88;;;2.97;;
67193;SDS011;54121;53.508;49.422;2022-07-22T13:14:10;3.97;;;1.83;;
67193;SDS011;54121;53.508;49.422;2022-07-22T13:16:38;9.75;;;2.60;;
67193;SDS011;54121;53.508;49.422;2022-07-22T13:19:04;10.77;;;2.20;;
67193;SDS011;54121;53.508;49.422;2022-07-22T13:21:31;7.78;;;1.30;;
67193;SDS011;54121;53.508;49.422;2022-07-22T13:23:58;10.23;;;1.88;;
67193;SDS011;54121;53.508;49.422;2022-07-22T13:26:24;2.60;;;1.30;;
67193;SDS011;54121;53.508;49.422;2022-07-22T13:28:51;5.70;;;1.33;;
67193;SDS011;54121;53.508;49.422;2022-07-22T13:31:18;5.30;;;1.10;;
67193;SDS011;54121;53.508;49.422;2022-07-22T13:33:44;13.20;;;1.90;;
67193;SDS011;54121;53.508;49.422;2022-07-22T13:36:11;6.25;;;1.73;;
67193;SDS011;54121;53.508;49.422;2022-07-22T13:38:37;9.43;;;3.03;;
67193;SDS011;54121;53.508;49.422;2022-07-22T13:41:04;9.88;;;2.25;;
67193;SDS011;54121;53.508;49.422;2022-07-22T13:43:42;6.40;;;1.98;;
67193;SDS011;54121;53.508;49.422;2022-07-22T13:46:09;10.88;;;2.30;;
67193;SDS011;54121;53.508;49.422;2022-07-22T13:48:36;11.70;;;1.75;;
67193;SDS011;54121;53.508;49.422;2022-07-22T13:51:02;8.85;;;2.50;;
67193;SDS011;54121;53.508;49.422;2022-07-22T13:53:30;8.00;;;1.93;;
67193;SDS011;54121;53.508;49.422;2022-07-22T13:55:57;8.27;;;2.33;;
67193;SDS011;54121;53.508;49.422;2022-07-22T13:58:23;11.88;;;2.92;;
67193;SDS011;54121;53.508;49.422;2022-07-22T14:00:49;7.25;;;1.45;;
67193;SDS011;54121;53.508;49.422;2022-07-22T14:03:16;4.97;;;1.90;;
67193;SDS011;54121;53.508;49.422;2022-07-22T14:05:43;12.07;;;1.80;;
67193;SDS011;54121;53.508;49.422;2022-07-22T14:08:10;4.73;;;1.57;;
67193;SDS011;54121;53.508;49.422;2022-07-22T14:10:37;5.22;;;1.30;;
67193;SDS011;54121;53.508;49.422;2022-07-22T14:13:03;7.35;;;2.10;;
67193;SDS011;54121;53.508;49.422;2022-07-22T14:15:32;5.95;;;2.20;;
67193;SDS011;54121;53.508;49.422;2022-07-22T14:17:59;7.93;;;1.67;;
67193;SDS011;54121;53.508;49.422;2022-07-22T14:20:25;10.43;;;2.70;;
67193;SDS011;54121;53.508;49.422;2022-07-22T14:22:52;9.18;;;2.60;;
67193;SDS011;54121;53.508;49.422;2022-07-22T14:25:19;6.93;;;2.20;;
67193;SDS011;54121;53.508;49.422;2022-07-22T14:27:46;17.08;;;2.50;;
67193;SDS011;54121;53.508;49.422;2022-07-22T14:30:12;4.25;;;1.70;;
67193;SDS011;54121;53.508;49.422;2022-07-22T14:32:39;11.52;;;2.58;;
67193;SDS011;54121;53.508;49.422;2022-07-22T14:35:05;6.15;;;1.67;;
67193;SDS011;54121;53.508;49.422;2022-07-22T14:37:32;15.63;;;3.42;;
67193;SDS011;54121;53.508;49.422;2022-07-22T14:39:59;2.88;;;1.52;;
67193;SDS011;54121;53.508;49.422;2022-07-22T14:42:25;6.40;;;1.50;;
67193;SDS011;54121;53.508;49.422;2022-07-22T14:44:52;3.97;;;1.45;;
67193;SDS011;54121;53.508;49.422;2022-07-22T14:47:18;17.85;;;1.63;;
67193;SDS011;54121;53.508;49.422;2022-07-22T14:49:45;4.22;;;1.30;;
67193;SDS011;54121;53.508;49.422;2022-07-22T14:52:11;10.73;;;3.05;;
67193;SDS011;54121;53.508;49.422;2022-07-22T14:54:38;5.50;;;1.40;;
67193;SDS011;54121;53.508;49.422;2022-07-22T14:57:04;6.25;;;1.30;;
67193;SDS011;54121;53.508;49.422;2022-07-22T14:59:30;5.82;;;1.48;;
67193;SDS011;54121;53.508;49.422;2022-07-22T15:01:57;9.38;;;1.65;;